createdAt,value
2022-08-17T00:00:42.926Z,98348.81
2022-08-17T00:01:52.124Z,98350.13
2022-08-17T00:03:03.600Z,98346.09
2022-08-17T00:04:10.668Z,98350.41
2022-08-17T00:05:15.647Z,98350.41
2022-08-17T00:06:28.197Z,98347.22
2022-08-17T00:07:29.944Z,98350.59
2022-08-17T00:08:40.915Z,98354.41
2022-08-17T00:09:42.529Z,98353.50
2022-08-17T00:10:46.550Z,98349.22
2022-08-17T00:12:43.445Z,98332.41
2022-08-17T00:13:16.825Z,98339.09
2022-08-17T00:14:19.692Z,98348.94
2022-08-17T00:15:22.797Z,98351.00
2022-08-17T00:16:56.149Z,98349.72
2022-08-17T00:17:59.394Z,98350.03
2022-08-17T00:19:08.745Z,98341.19
2022-08-17T00:20:12.170Z,98353.13
2022-08-17T00:21:16.669Z,98352.50
2022-08-17T00:22:34.232Z,98339.34
2022-08-17T00:23:39.859Z,98349.31
2022-08-17T00:24:50.372Z,98347.94
2022-08-17T00:25:52.942Z,98335.53
2022-08-17T00:26:54.661Z,98349.97
2022-08-17T00:27:56.497Z,98348.53
2022-08-17T00:29:00.136Z,98343.91
2022-08-17T00:30:02.098Z,98345.81
2022-08-17T00:31:04.004Z,98342.78
2022-08-17T00:33:14.382Z,98341.41
2022-08-17T00:33:31.305Z,98357.31
2022-08-17T00:34:33.270Z,98350.28
2022-08-17T00:35:35.477Z,98351.44
2022-08-17T00:36:37.602Z,98354.47
2022-08-17T00:37:39.739Z,98352.88
2022-08-17T00:38:41.718Z,98348.25
2022-08-17T00:39:44.562Z,98352.88
2022-08-17T00:40:55.856Z,98357.50
2022-08-17T00:42:00.802Z,98355.91
2022-08-17T00:43:22.365Z,98359.28
2022-08-17T00:44:24.079Z,98353.84
2022-08-17T00:45:32.138Z,98354.97
2022-08-17T00:46:40.564Z,98354.66
2022-08-17T00:47:43.740Z,98357.69
2022-08-17T00:48:45.723Z,98360.72
2022-08-17T00:49:47.444Z,98352.59
2022-08-17T00:51:16.024Z,98356.41
2022-08-17T00:52:23.212Z,98370.75
2022-08-17T00:53:29.218Z,98344.81
2022-08-17T00:54:42.008Z,98360.25
2022-08-17T00:55:44.262Z,98361.72
2022-08-17T00:56:56.882Z,98360.44
2022-08-17T00:58:02.267Z,98361.06
2022-08-17T00:59:06.760Z,98365.38
2022-08-17T01:00:14.655Z,98338.97
2022-08-17T01:01:21.228Z,98367.59
2022-08-17T01:02:24.285Z,98356.03
2022-08-17T01:03:26.372Z,98358.56
2022-08-17T01:04:30.319Z,98346.94
2022-08-17T01:05:34.544Z,98349.19
2022-08-17T01:06:36.437Z,98355.38
2022-08-17T01:07:38.822Z,98357.78
2022-08-17T01:08:41.139Z,98355.84
2022-08-17T01:09:44.191Z,98347.59
2022-08-17T01:10:58.691Z,98356.03
2022-08-17T01:12:06.330Z,98361.44
2022-08-17T01:13:12.296Z,98359.84
2022-08-17T01:14:14.577Z,98364.16
2022-08-17T01:15:16.817Z,98346.03
2022-08-17T01:16:26.241Z,98362.72
2022-08-17T01:17:28.710Z,98335.69
2022-08-17T01:18:32.214Z,98357.31
2022-08-17T01:19:37.428Z,98367.34
2022-08-17T01:20:48.669Z,98364.94
2022-08-17T01:21:52.897Z,98357.63
2022-08-17T01:22:54.757Z,98357.63
2022-08-17T01:23:56.959Z,98355.69
2022-08-17T01:25:01.864Z,98348.69
2022-08-17T01:26:06.223Z,98356.50
2022-08-17T01:27:10.736Z,98332.03
2022-08-17T01:28:12.564Z,98351.06
2022-08-17T01:29:35.374Z,98354.91
2022-08-17T01:30:57.740Z,98345.84
2022-08-17T01:32:03.752Z,98350.13
2022-08-17T01:33:05.945Z,98349.34
2022-08-17T01:34:10.584Z,98345.50
2022-08-17T01:35:12.990Z,98348.88
2022-08-17T01:36:14.758Z,98352.38
2022-08-17T01:37:17.873Z,98338.81
2022-08-17T01:38:19.879Z,98338.22
2022-08-17T01:39:58.303Z,98339.94
2022-08-17T01:41:12.738Z,98337.28
2022-08-17T01:42:24.075Z,98337.28
2022-08-17T01:43:32.891Z,98333.78
2022-08-17T01:44:35.083Z,98342.22
2022-08-17T01:45:46.903Z,98337.94
2022-08-17T01:46:48.608Z,98336.81
2022-08-17T01:47:51.302Z,98335.69
2022-08-17T01:48:53.860Z,98338.41
2022-08-17T01:49:56.605Z,98337.28
2022-08-17T01:50:58.461Z,98319.19
2022-08-17T01:52:06.934Z,98330.13
2022-08-17T01:53:18.510Z,98330.44
2022-08-17T01:54:21.228Z,98330.31
2022-08-17T01:55:30.695Z,98335.53
2022-08-17T01:56:35.691Z,98334.75
2022-08-17T01:57:37.476Z,98327.75
2022-08-17T01:58:40.490Z,98333.50
2022-08-17T01:59:42.479Z,98334.31
2022-08-17T02:00:59.464Z,98336.22
2022-08-17T02:02:02.796Z,98330.31
2022-08-17T02:03:04.956Z,98333.03
2022-08-17T02:04:08.516Z,98324.13
2022-08-17T02:05:10.395Z,98323.00
2022-08-17T02:06:27.074Z,98315.84
2022-08-17T02:07:29.884Z,98323.97
2022-08-17T02:08:37.113Z,98334.31
2022-08-17T02:09:41.213Z,98331.59
2022-08-17T02:10:46.782Z,98312.84
2022-08-17T02:11:48.690Z,98323.00
2022-08-17T02:12:52.168Z,98272.00
2022-08-17T02:13:55.035Z,98312.06
2022-08-17T02:15:06.331Z,98299.34
2022-08-17T02:16:08.122Z,98325.28
2022-08-17T02:17:09.889Z,98312.84
2022-08-17T02:18:13.625Z,98324.81
2022-08-17T02:19:16.854Z,98331.00
2022-08-17T02:20:41.609Z,98321.47
2022-08-17T02:21:43.309Z,98326.25
2022-08-17T02:22:47.926Z,98323.06
2022-08-17T02:23:50.245Z,98326.09
2022-08-17T02:25:00.551Z,98321.16
2022-08-17T02:26:04.166Z,98309.56
2022-08-17T02:27:06.998Z,98327.69
2022-08-17T02:28:08.754Z,98326.09
2022-08-17T02:29:10.600Z,98322.25
2022-08-17T02:30:59.741Z,98328.78
2022-08-17T02:31:36.629Z,98326.09
2022-08-17T02:32:38.447Z,98316.88
2022-08-17T02:33:42.623Z,98313.38
2022-08-17T02:34:46.053Z,98322.91
2022-08-17T02:35:47.880Z,98320.38
2022-08-17T02:36:49.654Z,98331.69
2022-08-17T02:37:51.956Z,98321.97
2022-08-17T02:38:58.752Z,98319.91
2022-08-17T02:40:00.664Z,98331.81
2022-08-17T02:41:02.879Z,98315.63
2022-08-17T02:42:05.659Z,98336.44
2022-08-17T02:43:08.951Z,98335.31
2022-08-17T02:44:11.102Z,98332.63
2022-08-17T02:45:19.358Z,98331.34
2022-08-17T02:46:21.217Z,98340.13
2022-08-17T02:47:23.048Z,98334.41
2022-08-17T02:48:31.104Z,98342.16
2022-08-17T02:49:33.606Z,98323.53
2022-08-17T02:50:35.306Z,98329.31
2022-08-17T02:51:37.097Z,98340.25
2022-08-17T02:52:42.473Z,98337.56
2022-08-17T02:53:45.388Z,98334.06
2022-08-17T02:54:47.659Z,98323.22
2022-08-17T02:55:49.390Z,98336.44
2022-08-17T02:56:51.162Z,98332.00
2022-08-17T02:57:53.916Z,98336.75
2022-08-17T02:58:55.675Z,98330.41
2022-08-17T02:59:57.399Z,98335.19
2022-08-17T03:00:59.143Z,98339.13
2022-08-17T03:02:03.851Z,98324.53
2022-08-17T03:03:06.269Z,98341.72
2022-08-17T03:04:08.076Z,98335.03
2022-08-17T03:05:13.140Z,98339.34
2022-08-17T03:06:14.919Z,98335.84
2022-08-17T03:07:16.649Z,98336.31
2022-08-17T03:08:18.447Z,98339.81
2022-08-17T03:09:20.195Z,98342.03
2022-08-17T03:10:22.848Z,98336.94
2022-08-17T03:11:24.582Z,98336.63
2022-08-17T03:12:32.582Z,98339.34
2022-08-17T03:13:34.427Z,98336.94
2022-08-17T03:14:41.756Z,98334.56
2022-08-17T03:15:46.308Z,98342.38
2022-08-17T03:16:48.012Z,98341.56
2022-08-17T03:17:50.690Z,98338.84
2022-08-17T03:18:52.390Z,98338.34
2022-08-17T03:19:54.158Z,98341.88
2022-08-17T03:20:58.758Z,98317.09
2022-08-17T03:22:00.509Z,98346.66
2022-08-17T03:23:24.038Z,98339.84
2022-08-17T03:24:28.766Z,98337.94
2022-08-17T03:25:37.677Z,98342.38
2022-08-17T03:26:40.385Z,98329.69
2022-08-17T03:27:42.334Z,98342.41
2022-08-17T03:28:49.940Z,98341.94
2022-08-17T03:29:51.689Z,98331.47
2022-08-17T03:30:53.509Z,98337.78
2022-08-17T03:31:55.232Z,98345.28
2022-08-17T03:33:00.212Z,98347.50
2022-08-17T03:34:01.957Z,98338.59
2022-08-17T03:35:03.878Z,98341.63
2022-08-17T03:36:07.038Z,98341.94
2022-08-17T03:37:09.186Z,98328.09
2022-08-17T03:38:14.990Z,98342.09
2022-08-17T03:39:17.110Z,98339.38
2022-08-17T03:40:57.855Z,98340.03
2022-08-17T03:41:40.716Z,98341.28
2022-08-17T03:42:42.445Z,98334.00
2022-08-17T03:43:44.145Z,98339.88
2022-08-17T03:44:50.116Z,98350.03
2022-08-17T03:46:28.690Z,98347.81
2022-08-17T03:47:51.030Z,98345.28
2022-08-17T03:49:11.081Z,98341.94
2022-08-17T03:50:31.991Z,98349.59
2022-08-17T03:51:52.383Z,98341.31
2022-08-17T03:53:12.884Z,98358.16
2022-08-17T03:54:32.959Z,98338.63
2022-08-17T03:55:54.514Z,98362.00
2022-08-17T03:57:05.473Z,98357.03
2022-08-17T03:58:07.061Z,98358.16
2022-08-17T03:59:11.088Z,98359.44
2022-08-17T04:00:24.196Z,98358.34
2022-08-17T04:01:27.024Z,98365.34
2022-08-17T04:02:32.047Z,98358.03
2022-08-17T04:03:33.965Z,98363.91
2022-08-17T04:04:36.717Z,98372.63
2022-08-17T04:05:39.030Z,98364.06
2022-08-17T04:06:42.478Z,98367.84
2022-08-17T04:07:44.356Z,98371.19
2022-08-17T04:08:46.078Z,98372.78
2022-08-17T04:09:48.130Z,98373.06
2022-08-17T04:10:49.922Z,98372.63
2022-08-17T04:11:52.156Z,98375.91
2022-08-17T04:12:55.263Z,98382.78
2022-08-17T04:13:57.054Z,98376.56
2022-08-17T04:14:59.225Z,98377.50
2022-08-17T04:16:00.977Z,98384.00
2022-08-17T04:17:02.882Z,98364.88
2022-08-17T04:18:04.681Z,98381.53
2022-08-17T04:19:07.191Z,98383.84
2022-08-17T04:20:09.626Z,98381.28
2022-08-17T04:21:11.510Z,98387.00
2022-08-17T04:22:32.869Z,98354.81
2022-08-17T04:23:36.800Z,98387.28
2022-08-17T04:24:38.556Z,98341.47
2022-08-17T04:25:44.471Z,98392.91
2022-08-17T04:26:53.196Z,98382.44
2022-08-17T04:27:56.958Z,98395.94
2022-08-17T04:28:59.115Z,98377.28
2022-08-17T04:30:01.269Z,98394.22
2022-08-17T04:31:03.055Z,98394.44
2022-08-17T04:32:05.390Z,98388.28
2022-08-17T04:33:11.327Z,98389.81
2022-08-17T04:34:13.168Z,98397.53
2022-08-17T04:35:21.953Z,98404.47
2022-08-17T04:36:23.736Z,98380.59
2022-08-17T04:37:25.456Z,98398.75
2022-08-17T04:38:34.289Z,98384.25
2022-08-17T04:39:36.080Z,98401.72
2022-08-17T04:40:56.390Z,98386.97
2022-08-17T04:42:07.305Z,98398.19
2022-08-17T04:43:10.757Z,98402.06
2022-08-17T04:44:12.855Z,98391.28
2022-08-17T04:45:38.454Z,98403.31
2022-08-17T04:46:40.173Z,98406.13
2022-08-17T04:47:41.885Z,98366.47
2022-08-17T04:48:47.174Z,98405.44
2022-08-17T04:49:48.931Z,98404.41
2022-08-17T04:50:51.821Z,98407.66
2022-08-17T04:51:56.160Z,98401.88
2022-08-17T04:52:58.855Z,98395.91
2022-08-17T04:54:13.061Z,98404.38
2022-08-17T04:55:15.376Z,98405.19
2022-08-17T04:56:19.056Z,98401.22
2022-08-17T04:57:20.837Z,98406.44
2022-08-17T04:58:22.550Z,98411.66
2022-08-17T04:59:24.287Z,98402.50
2022-08-17T05:00:26.342Z,98407.28
2022-08-17T05:01:31.571Z,98396.84
2022-08-17T05:02:33.303Z,98405.00
2022-08-17T05:03:36.317Z,98404.88
2022-08-17T05:04:41.845Z,98376.25
2022-08-17T05:05:49.390Z,98409.66
2022-08-17T05:06:51.706Z,98407.53
2022-08-17T05:08:00.312Z,98404.00
2022-08-17T05:09:02.722Z,98403.22
2022-08-17T05:10:05.171Z,98406.34
2022-08-17T05:11:07.703Z,98402.50
2022-08-17T05:12:10.077Z,98407.06
2022-08-17T05:13:20.239Z,98411.81
2022-08-17T05:14:22.427Z,98413.41
2022-08-17T05:15:39.310Z,98417.41
2022-08-17T05:16:49.449Z,98415.13
2022-08-17T05:17:51.171Z,98417.25
2022-08-17T05:18:53.611Z,98417.84
2022-08-17T05:19:55.428Z,98424.19
2022-08-17T05:20:57.860Z,98410.19
2022-08-17T05:21:59.759Z,98431.13
2022-08-17T05:23:10.101Z,98429.53
2022-08-17T05:24:35.449Z,98434.22
2022-08-17T05:25:41.390Z,98420.50
2022-08-17T05:26:43.335Z,98424.13
2022-08-17T05:27:45.567Z,98432.97
2022-08-17T05:28:48.749Z,98429.97
2022-08-17T05:29:52.317Z,98426.19
2022-08-17T05:30:57.075Z,98425.13
2022-08-17T05:31:58.767Z,98428.31
2022-08-17T05:33:06.408Z,98425.50
2022-08-17T05:34:08.182Z,98423.16
2022-08-17T05:35:09.913Z,98426.56
2022-08-17T05:36:41.831Z,98420.22
2022-08-17T05:37:36.817Z,98433.63
2022-08-17T05:38:38.553Z,98413.66
2022-08-17T05:39:40.475Z,98423.59
2022-08-17T05:40:42.999Z,98418.59
2022-08-17T05:41:47.045Z,98436.34
2022-08-17T05:42:50.274Z,98438.31
2022-08-17T05:43:56.235Z,98424.63
2022-08-17T05:44:58.982Z,98431.53
2022-08-17T05:46:06.409Z,98414.72
2022-08-17T05:47:09.821Z,98423.66
2022-08-17T05:48:11.727Z,98424.38
2022-08-17T05:49:18.022Z,98432.13
2022-08-17T05:50:27.129Z,98426.84
2022-08-17T05:51:34.266Z,98428.56
2022-08-17T05:53:05.947Z,98415.38
2022-08-17T05:54:18.171Z,98429.50
2022-08-17T05:55:51.985Z,98432.53
2022-08-17T05:57:24.140Z,98432.75
2022-08-17T05:58:48.610Z,98435.81
2022-08-17T06:00:02.380Z,98434.19
2022-08-17T06:01:10.019Z,98423.28
2022-08-17T06:02:49.573Z,98425.91
2022-08-17T06:04:03.325Z,98427.97
2022-08-17T06:05:16.578Z,98430.75
2022-08-17T06:06:31.345Z,98420.94
2022-08-17T06:07:42.539Z,98432.91
2022-08-17T06:08:48.390Z,98425.19
2022-08-17T06:10:14.842Z,98433.25
2022-08-17T06:11:31.699Z,98428.47
2022-08-17T06:12:43.064Z,98434.59
2022-08-17T06:13:57.933Z,98437.84
2022-08-17T06:15:25.033Z,98434.78
2022-08-17T06:16:36.376Z,98434.88
2022-08-17T06:17:38.796Z,98431.03
2022-08-17T06:18:57.332Z,98439.31
2022-08-17T06:20:10.646Z,98431.97
2022-08-17T06:21:17.268Z,98426.91
2022-08-17T06:22:29.171Z,98434.38
2022-08-17T06:23:56.062Z,98434.41
2022-08-17T06:25:10.265Z,98439.88
2022-08-17T06:26:25.822Z,98442.28
2022-08-17T06:27:55.742Z,98430.50
2022-08-17T06:29:08.212Z,98434.44
2022-08-17T06:30:59.809Z,98435.22
2022-08-17T06:31:52.181Z,98435.22
2022-08-17T06:32:59.660Z,98434.44
2022-08-17T06:34:03.734Z,98432.47
2022-08-17T06:35:11.626Z,98426.19
2022-08-17T06:36:51.023Z,98434.44
2022-08-17T06:38:38.189Z,98432.88
2022-08-17T06:40:12.524Z,98439.97
2022-08-17T06:41:22.946Z,98430.50
2022-08-17T06:43:06.135Z,98432.47
2022-08-17T06:44:43.597Z,98436.03
2022-08-17T06:46:16.754Z,98438.75
2022-08-17T06:47:29.330Z,98440.31
2022-08-17T06:48:38.398Z,98426.94
2022-08-17T06:49:55.295Z,98434.38
2022-08-17T06:51:07.502Z,98432.75
2022-08-17T06:52:45.799Z,98433.59
2022-08-17T06:53:54.603Z,98433.63
2022-08-17T06:55:05.320Z,98428.13
2022-08-17T06:56:09.082Z,98434.03
2022-08-17T06:57:22.956Z,98424.16
2022-08-17T06:58:31.489Z,98426.50
2022-08-17T06:59:55.414Z,98419.81
2022-08-17T07:01:04.033Z,98429.66
2022-08-17T07:02:09.966Z,98428.09
2022-08-17T07:03:16.547Z,98429.66
2022-08-17T07:04:26.505Z,98435.13
2022-08-17T07:05:52.421Z,98432.00
2022-08-17T07:07:24.816Z,98430.44
2022-08-17T07:08:35.304Z,98424.19
2022-08-17T07:09:38.135Z,98436.78
2022-08-17T07:10:46.307Z,98436.41
2022-08-17T07:11:53.002Z,98429.72
2022-08-17T07:13:03.093Z,98432.47
2022-08-17T07:14:25.905Z,98432.06
2022-08-17T07:15:43.265Z,98426.56
2022-08-17T07:16:50.831Z,98431.28
2022-08-17T07:17:52.808Z,98426.94
2022-08-17T07:18:57.379Z,98435.16
2022-08-17T07:20:10.828Z,98432.75
2022-08-17T07:21:41.001Z,98424.03
2022-08-17T07:23:02.059Z,98432.63
2022-08-17T07:24:29.839Z,98436.56
2022-08-17T07:25:33.182Z,98432.59
2022-08-17T07:26:35.027Z,98427.94
2022-08-17T07:27:38.455Z,98427.97
2022-08-17T07:28:40.435Z,98432.25
2022-08-17T07:30:16.857Z,98425.97
2022-08-17T07:31:18.597Z,98416.91
2022-08-17T07:32:40.521Z,98432.25
2022-08-17T07:33:59.878Z,98428.69
2022-08-17T07:35:15.647Z,98438.53
2022-08-17T07:36:29.539Z,98429.06
2022-08-17T07:37:34.402Z,98434.84
2022-08-17T07:38:54.431Z,98430.03
2022-08-17T07:40:15.456Z,98426.72
2022-08-17T07:41:21.029Z,98425.13
2022-08-17T07:42:22.993Z,98437.84
2022-08-17T07:43:34.664Z,98438.53
2022-08-17T07:44:50.628Z,98428.91
2022-08-17T07:46:21.728Z,98426.53
2022-08-17T07:48:02.191Z,98411.84
2022-08-17T07:49:03.858Z,98426.97
2022-08-17T07:50:26.529Z,98432.06
2022-08-17T07:51:39.559Z,98433.69
2022-08-17T07:52:51.186Z,98432.13
2022-08-17T07:54:13.596Z,98424.19
2022-08-17T07:55:31.943Z,98435.69
2022-08-17T07:56:42.658Z,98426.53
2022-08-17T07:57:54.404Z,98425.63
2022-08-17T07:59:12.526Z,98430.88
2022-08-17T08:00:26.663Z,98433.16
2022-08-17T08:01:39.743Z,98423.56
2022-08-17T08:02:47.737Z,98420.78
2022-08-17T08:03:52.651Z,98426.13
2022-08-17T08:05:12.972Z,98426.41
2022-08-17T08:06:21.003Z,98425.59
2022-08-17T08:07:22.635Z,98427.66
2022-08-17T08:08:42.754Z,98424.34
2022-08-17T08:10:00.080Z,98421.84
2022-08-17T08:11:35.819Z,98423.28
2022-08-17T08:12:48.445Z,98418.06
2022-08-17T08:13:55.493Z,98425.00
2022-08-17T08:15:02.366Z,98425.97
2022-08-17T08:16:24.596Z,98422.63
2022-08-17T08:17:32.345Z,98415.16
2022-08-17T08:18:54.787Z,98425.28
2022-08-17T08:20:00.065Z,98418.19
2022-08-17T08:21:10.658Z,98417.69
2022-08-17T08:22:18.690Z,98413.72
2022-08-17T08:23:41.633Z,98416.50
2022-08-17T08:24:55.466Z,98413.81
2022-08-17T08:26:23.497Z,98419.53
2022-08-17T08:27:28.231Z,98415.63
2022-08-17T08:28:29.865Z,98412.38
2022-08-17T08:29:50.386Z,98415.50
2022-08-17T08:31:03.630Z,98413.44
2022-08-17T08:32:45.436Z,98414.81
2022-08-17T08:33:55.087Z,98407.00
2022-08-17T08:35:08.878Z,98414.72
2022-08-17T08:37:12.523Z,98407.16
2022-08-17T08:37:56.692Z,98404.22
2022-08-17T08:39:06.432Z,98404.06
2022-08-17T08:40:11.621Z,98401.03
2022-08-17T08:41:59.047Z,98395.25
2022-08-17T08:43:27.176Z,98384.31
2022-08-17T08:45:00.196Z,98404.63
2022-08-17T08:46:30.953Z,98409.81
2022-08-17T08:48:22.873Z,98397.53
2022-08-17T08:50:37.167Z,98408.50
2022-08-17T08:51:59.499Z,98397.06
2022-08-17T08:53:19.113Z,98388.94
2022-08-17T08:54:39.658Z,98402.41
2022-08-17T08:55:41.610Z,98405.94
2022-08-17T08:57:21.475Z,98394.84
2022-08-17T08:58:44.944Z,98387.53
2022-08-17T09:00:05.079Z,98404.22
2022-08-17T09:01:18.450Z,98399.25
2022-08-17T09:02:45.594Z,98388.22
2022-08-17T09:04:24.042Z,98392.13
2022-08-17T09:05:56.130Z,98389.72
2022-08-17T09:07:03.939Z,98386.59
2022-08-17T09:08:27.331Z,98394.41
2022-08-17T09:09:59.335Z,98374.72
2022-08-17T09:12:02.320Z,98393.13
2022-08-17T09:13:36.150Z,98398.22
2022-08-17T09:14:45.347Z,98391.53
2022-08-17T09:15:59.073Z,98389.56
2022-08-17T09:17:14.121Z,98385.50
2022-08-17T09:19:01.795Z,98382.16
2022-08-17T09:20:04.561Z,98377.66
2022-08-17T09:21:22.613Z,98374.47
2022-08-17T09:22:37.749Z,98378.16
2022-08-17T09:23:45.913Z,98379.66
2022-08-17T09:24:57.505Z,98385.25
2022-08-17T09:26:03.024Z,98379.97
2022-08-17T09:27:11.475Z,98370.59
2022-08-17T09:28:20.026Z,98384.56
2022-08-17T09:29:27.121Z,98372.72
2022-08-17T09:30:40.876Z,98365.78
2022-08-17T09:31:50.038Z,98375.09
2022-08-17T09:33:00.026Z,98370.41
2022-08-17T09:34:13.139Z,98365.25
2022-08-17T09:35:22.920Z,98359.69
2022-08-17T09:36:45.053Z,98369.16
2022-08-17T09:38:08.591Z,98364.59
2022-08-17T09:39:17.322Z,98360.69
2022-08-17T09:40:57.373Z,98371.78
2022-08-17T09:42:06.927Z,98365.94
2022-08-17T09:43:08.761Z,98373.03
2022-08-17T09:44:40.266Z,98372.94
2022-08-17T09:45:50.789Z,98371.25
2022-08-17T09:47:01.851Z,98370.50
2022-08-17T09:48:11.417Z,98375.94
2022-08-17T09:49:15.096Z,98362.16
2022-08-17T09:51:04.245Z,98365.88
2022-08-17T09:52:01.579Z,98370.91
2022-08-17T09:53:03.819Z,98357.47
2022-08-17T09:54:37.667Z,98371.41
2022-08-17T09:55:58.145Z,98371.75
2022-08-17T09:57:29.269Z,98365.16
2022-08-17T09:58:54.333Z,98369.91
2022-08-17T10:00:19.036Z,98372.25
2022-08-17T10:01:36.897Z,98369.25
2022-08-17T10:03:09.873Z,98372.13
2022-08-17T10:04:35.682Z,98359.84
2022-08-17T10:05:56.422Z,98376.25
2022-08-17T10:07:12.353Z,98359.69
2022-08-17T10:08:35.818Z,98365.53
2022-08-17T10:10:00.260Z,98358.13
2022-08-17T10:11:19.950Z,98359.13
2022-08-17T10:12:34.263Z,98359.91
2022-08-17T10:13:59.503Z,98361.56
2022-08-17T10:15:25.891Z,98361.22
2022-08-17T10:16:38.429Z,98357.94
2022-08-17T10:18:08.651Z,98360.75
2022-08-17T10:19:22.999Z,98369.03
2022-08-17T10:20:24.729Z,98355.25
2022-08-17T10:21:45.376Z,98361.44
2022-08-17T10:23:13.283Z,98351.06
2022-08-17T10:25:21.738Z,98354.31
2022-08-17T10:26:20.711Z,98341.44
2022-08-17T10:27:39.536Z,98348.38
2022-08-17T10:28:59.467Z,98351.88
2022-08-17T10:30:04.967Z,98348.47
2022-08-17T10:32:38.573Z,98341.34
2022-08-17T10:34:01.990Z,98348.75
2022-08-17T10:35:03.650Z,98346.34
2022-08-17T10:36:23.476Z,98333.56
2022-08-17T10:37:52.336Z,98338.09
2022-08-17T10:39:27.613Z,98341.00
2022-08-17T10:40:45.508Z,98343.63
2022-08-17T10:41:54.173Z,98345.91
2022-08-17T10:43:05.402Z,98346.91
2022-08-17T10:44:39.217Z,98345.63
2022-08-17T10:46:26.457Z,98342.66
2022-08-17T10:47:18.544Z,98340.09
2022-08-17T10:48:34.664Z,98332.19
2022-08-17T10:49:54.219Z,98333.41
2022-08-17T10:50:56.141Z,98325.22
2022-08-17T10:52:00.348Z,98327.66
2022-08-17T10:53:02.163Z,98324.25
2022-08-17T10:54:06.583Z,98324.59
2022-08-17T10:55:15.623Z,98329.69
2022-08-17T10:56:19.638Z,98325.31
2022-08-17T10:57:27.190Z,98323.63
2022-08-17T10:58:38.435Z,98331.63
2022-08-17T10:59:40.093Z,98322.97
2022-08-17T11:00:42.571Z,98325.97
2022-08-17T11:02:13.014Z,98323.81
2022-08-17T11:03:23.860Z,98321.22
2022-08-17T11:04:59.134Z,98316.97
2022-08-17T11:06:19.676Z,98314.47
2022-08-17T11:07:28.081Z,98315.13
2022-08-17T11:08:57.662Z,98309.44
2022-08-17T11:10:33.450Z,98309.28
2022-08-17T11:11:45.463Z,98316.69
2022-08-17T11:13:28.239Z,98310.88
2022-08-17T11:15:01.670Z,98300.72
2022-08-17T11:16:26.631Z,98300.06
2022-08-17T11:17:41.790Z,98313.28
2022-08-17T11:19:14.636Z,98306.69
2022-08-17T11:20:25.515Z,98307.59
2022-08-17T11:21:53.490Z,98305.09
2022-08-17T11:23:14.819Z,98304.09
2022-08-17T11:24:21.074Z,98305.41
2022-08-17T11:25:43.961Z,98281.16
2022-08-17T11:27:19.553Z,98296.25
2022-08-17T11:28:34.476Z,98296.03
2022-08-17T11:29:51.983Z,98297.66
2022-08-17T11:30:59.696Z,98301.50
2022-08-17T11:32:13.430Z,98297.03
2022-08-17T11:33:30.436Z,98294.41
2022-08-17T11:34:35.235Z,98294.41
2022-08-17T11:35:49.773Z,98284.28
2022-08-17T11:37:34.861Z,98291.47
2022-08-17T11:38:58.146Z,98293.78
2022-08-17T11:40:11.925Z,98286.78
2022-08-17T11:41:27.554Z,98285.16
2022-08-17T11:42:52.685Z,98283.84
2022-08-17T11:44:25.654Z,98292.19
2022-08-17T11:45:41.323Z,98296.88
2022-08-17T11:47:19.792Z,98278.31
2022-08-17T11:49:08.240Z,98283.66
2022-08-17T11:50:50.640Z,98274.94
2022-08-17T11:52:01.460Z,98280.59
2022-08-17T11:53:03.439Z,98289.47
2022-08-17T11:54:35.093Z,98289.28
2022-08-17T11:55:44.444Z,98286.09
2022-08-17T11:56:50.455Z,98278.41
2022-08-17T11:58:29.526Z,98283.06
2022-08-17T11:59:34.018Z,98283.06
2022-08-17T12:00:45.012Z,98281.59
2022-08-17T12:01:49.723Z,98279.19
2022-08-17T12:03:54.356Z,98279.19
2022-08-17T12:05:21.164Z,98279.53
2022-08-17T12:06:44.798Z,98275.34
2022-08-17T12:07:55.065Z,98266.28
2022-08-17T12:09:07.212Z,98266.88
2022-08-17T12:10:12.307Z,98261.53
2022-08-17T12:12:11.109Z,98264.53
2022-08-17T12:12:50.347Z,98259.47
2022-08-17T12:13:57.735Z,98264.53
2022-08-17T12:15:16.951Z,98260.22
2022-08-17T12:16:21.213Z,98256.09
2022-08-17T12:17:51.901Z,98256.75
2022-08-17T12:18:54.256Z,98262.81
2022-08-17T12:20:11.215Z,98267.94
2022-08-17T12:21:37.639Z,98257.72
2022-08-17T12:23:11.529Z,98260.09
2022-08-17T12:24:37.423Z,98256.13
2022-08-17T12:25:43.120Z,98260.91
2022-08-17T12:26:52.479Z,98259.34
2022-08-17T12:28:06.168Z,98253.50
2022-08-17T12:29:18.261Z,98257.34
2022-08-17T12:30:38.021Z,98258.50
2022-08-17T12:31:45.758Z,98257.44
2022-08-17T12:32:48.615Z,98248.19
2022-08-17T12:33:51.956Z,98255.59
2022-08-17T12:34:54.029Z,98261.78
2022-08-17T12:35:59.829Z,98261.69
2022-08-17T12:37:06.959Z,98254.19
2022-08-17T12:38:26.708Z,98256.13
2022-08-17T12:39:34.010Z,98254.19
2022-08-17T12:40:36.216Z,98254.69
2022-08-17T12:41:44.746Z,98256.38
2022-08-17T12:43:01.020Z,98250.19
2022-08-17T12:44:18.498Z,98248.03
2022-08-17T12:45:29.441Z,98258.78
2022-08-17T12:46:35.096Z,98253.94
2022-08-17T12:47:37.794Z,98252.97
2022-08-17T12:48:39.713Z,98258.88
2022-08-17T12:50:28.549Z,98244.69
2022-08-17T12:51:31.920Z,98254.03
2022-08-17T12:52:38.542Z,98236.31
2022-08-17T12:53:45.607Z,98246.34
2022-08-17T12:55:01.135Z,98248.06
2022-08-17T12:56:16.242Z,98250.03
2022-08-17T12:57:20.403Z,98240.72
2022-08-17T12:58:26.829Z,98239.06
2022-08-17T12:59:30.151Z,98246.13
2022-08-17T13:00:38.202Z,98239.03
2022-08-17T13:01:42.249Z,98229.50
2022-08-17T13:02:52.325Z,98235.53
2022-08-17T13:03:59.883Z,98237.03
2022-08-17T13:05:02.053Z,98237.03
2022-08-17T13:06:07.446Z,98246.75
2022-08-17T13:07:09.158Z,98239.59
2022-08-17T13:08:20.735Z,98241.53
2022-08-17T13:09:35.485Z,98233.50
2022-08-17T13:10:38.207Z,98236.78
2022-08-17T13:11:56.021Z,98241.50
2022-08-17T13:13:03.526Z,98243.19
2022-08-17T13:14:10.362Z,98241.53
2022-08-17T13:15:31.464Z,98233.13
2022-08-17T13:16:33.810Z,98233.38
2022-08-17T13:17:37.012Z,98230.13
2022-08-17T13:18:41.679Z,98234.41
2022-08-17T13:19:51.480Z,98238.56
2022-08-17T13:20:54.842Z,98236.38
2022-08-17T13:22:00.125Z,98240.63
2022-08-17T13:23:11.407Z,98233.16
2022-08-17T13:24:21.471Z,98238.69
2022-08-17T13:25:24.145Z,98239.53
2022-08-17T13:27:01.223Z,98238.91
2022-08-17T13:28:32.436Z,98240.34
2022-08-17T13:29:51.438Z,98235.09
2022-08-17T13:31:33.102Z,98239.06
2022-08-17T13:32:50.973Z,98239.56
2022-08-17T13:33:52.807Z,98232.72
2022-08-17T13:35:13.052Z,98235.78
2022-08-17T13:36:30.452Z,98232.44
2022-08-17T13:37:36.015Z,98238.78
2022-08-17T13:38:49.700Z,98231.09
2022-08-17T13:39:54.024Z,98232.25
2022-08-17T13:40:55.785Z,98228.13
2022-08-17T13:41:58.023Z,98236.38
2022-08-17T13:42:59.822Z,98233.13
2022-08-17T13:44:02.317Z,98231.09
2022-08-17T13:45:36.369Z,98233.97
2022-08-17T13:46:38.690Z,98231.47
2022-08-17T13:47:41.430Z,98233.31
2022-08-17T13:48:43.606Z,98237.19
2022-08-17T13:49:48.851Z,98228.00
2022-08-17T13:50:57.029Z,98230.28
2022-08-17T13:51:58.806Z,98235.31
2022-08-17T13:53:00.743Z,98231.66
2022-08-17T13:54:05.786Z,98215.94
2022-08-17T13:55:21.025Z,98225.94
2022-08-17T13:56:57.827Z,98236.88
2022-08-17T13:58:05.058Z,98232.91
2022-08-17T13:59:16.990Z,98228.78
2022-08-17T14:00:39.472Z,98222.47
2022-08-17T14:01:53.465Z,98227.53
2022-08-17T14:02:55.694Z,98228.25